Birch 4 — VREG7 — position and weather

sailwx.info

Track history (hours):
 
Tides and Currents Weather Stations Pressure Air Temp Water Temp Dewpoint Dewpoint Depression Visibility Wind Speed Wind Dir Waves Ship Positions

Birch 4

Last reported at 2014-Oct-15 12:08 UTC. Time now 2014-Oct-22 03:15 UTC.
Position N 36°03' E 022°59'.

Length 160 m; draft 7.5 m.

Type: Ship. MMSI: 477111100.

Date/timePositionNaut miles runAvg speedWind from/ knotsBaromVisibWave heightAir tempDewpointWater temp
2014-Oct-15 12:08N 36°03' E 022°59'711.9
2014-Oct-15 11:31N 36°02' E 023°08'1212.6
2014-Oct-15 10:33N 36°10' E 023°20'2913.0
2014-Oct-15 08:20N 36°31' E 023°44'1012.9
2014-Oct-15 07:32N 36°39' E 023°53'1313.5
2014-Oct-15 06:33N 36°49' E 024°04'1313.0
2014-Oct-15 05:33N 37°01' E 024°09'1212.4
2014-Oct-15 04:33N 37°13' E 024°13'1312.8
2014-Oct-15 03:34N 37°25' E 024°17'1212.5
2014-Oct-15 02:34N 37°35' E 024°28'1313.0
2014-Oct-15 01:32N 37°47' E 024°33'2512.4
2014-Oct-14 23:32N 38°10' E 024°44'  
2014-Oct-10 03:31N 40°46' E 029°32'3 0.2
2014-Oct-09 06:29N 40°46' E 029°28'0 0.0
2014-Oct-09 00:05N 40°46' E 029°28'0 0.0
2014-Oct-08 23:29N 40°46' E 029°28'0 0.0
2014-Oct-08 18:05N 40°46' E 029°28'0 0.0
2014-Oct-08 16:11N 40°46' E 029°28'0 0.0
2014-Oct-08 14:23N 40°46' E 029°28'126 4.7
2014-Oct-07 11:25N 40°25' E 026°45'9 9.4
2014-Oct-07 10:27N 40°19' E 026°37'37 9.4
2014-Oct-07 06:33N 39°57' E 025°58'8011.4
2014-Oct-06 23:32N 38°46' E 025°10'1211.7
2014-Oct-06 22:33N 38°35' E 025°15'1512.1
2014-Oct-06 21:20N 38°21' E 025°22'1112.3
2014-Oct-06 20:25N 38°11' E 025°28'1112.2
2014-Oct-06 19:31N 38°01' E 025°33'1212.1
2014-Oct-06 18:32N 37°50' E 025°38'1212.3
2014-Oct-06 17:33N 37°38' E 025°43'1211.7
2014-Oct-06 16:33N 37°28' E 025°50'1312.5
2014-Oct-06 15:33N 37°22' E 026°04'1312.6
2014-Oct-06 14:33N 37°15' E 026°18'1212.4
2014-Oct-06 13:33N 37°09' E 026°31'1211.8
2014-Oct-06 12:33N 37°01' E 026°42'1211.8
2014-Oct-06 11:33N 36°50' E 026°44'1211.5
2014-Oct-06 10:33N 36°38' E 026°46'1111.5
2014-Oct-06 09:33N 36°27' E 026°50'  
Track history (hours):
 
Tides and Currents Weather Stations Pressure Air Temp Water Temp Dewpoint Dewpoint Depression Visibility Wind Speed Wind Dir Waves Ship Positions

Birch 4

Last reported at 2014-Oct-15 12:08 UTC. Time now 2014-Oct-22 03:15 UTC.
Position N 36°03' E 022°59'.

Length 160 m; draft 7.5 m.

Type: Ship. MMSI: 477111100.

Date/timePositionNaut miles runAvg speedWind from/ knotsBaromVisibWave heightAir tempDewpointWater temp
2014-Oct-15 12:08N 36°03' E 022°59'711.9
2014-Oct-15 11:31N 36°02' E 023°08'1212.6
2014-Oct-15 10:33N 36°10' E 023°20'2913.0
2014-Oct-15 08:20N 36°31' E 023°44'1012.9
2014-Oct-15 07:32N 36°39' E 023°53'1313.5
2014-Oct-15 06:33N 36°49' E 024°04'1313.0
2014-Oct-15 05:33N 37°01' E 024°09'1212.4
2014-Oct-15 04:33N 37°13' E 024°13'1312.8
2014-Oct-15 03:34N 37°25' E 024°17'1212.5
2014-Oct-15 02:34N 37°35' E 024°28'1313.0
2014-Oct-15 01:32N 37°47' E 024°33'2512.4
2014-Oct-14 23:32N 38°10' E 024°44'  
2014-Oct-10 03:31N 40°46' E 029°32'3 0.2
2014-Oct-09 06:29N 40°46' E 029°28'0 0.0
2014-Oct-09 00:05N 40°46' E 029°28'0 0.0
2014-Oct-08 23:29N 40°46' E 029°28'0 0.0
2014-Oct-08 18:05N 40°46' E 029°28'0 0.0
2014-Oct-08 16:11N 40°46' E 029°28'0 0.0
2014-Oct-08 14:23N 40°46' E 029°28'126 4.7
2014-Oct-07 11:25N 40°25' E 026°45'9 9.4
2014-Oct-07 10:27N 40°19' E 026°37'37 9.4
2014-Oct-07 06:33N 39°57' E 025°58'8011.4
2014-Oct-06 23:32N 38°46' E 025°10'1211.7
2014-Oct-06 22:33N 38°35' E 025°15'1512.1
2014-Oct-06 21:20N 38°21' E 025°22'1112.3
2014-Oct-06 20:25N 38°11' E 025°28'1112.2
2014-Oct-06 19:31N 38°01' E 025°33'1212.1
2014-Oct-06 18:32N 37°50' E 025°38'1212.3
2014-Oct-06 17:33N 37°38' E 025°43'1211.7
2014-Oct-06 16:33N 37°28' E 025°50'1312.5
2014-Oct-06 15:33N 37°22' E 026°04'1312.6
2014-Oct-06 14:33N 37°15' E 026°18'1212.4
2014-Oct-06 13:33N 37°09' E 026°31'1211.8
2014-Oct-06 12:33N 37°01' E 026°42'1211.8
2014-Oct-06 11:33N 36°50' E 026°44'1211.5
2014-Oct-06 10:33N 36°38' E 026°46'1111.5
2014-Oct-06 09:33N 36°27' E 026°50'  

Dump ship's entire track history